Latest Weather Observations for Albion Park

IDN60801

Issued at 11:04 am EDT Friday 30 January 2015 (issued every 30 minutes, with the page automatically refreshed every 10 minutes)

About weather observations | Map of weather stations | Latest weather observations for NSW | Other Formats
Station Details ID: 068241 Name: WOLLONGONG AIRPORT Lat: -34.56 Lon: 150.79 Height: 8.0 m
Data from the previous 72 hours. | See also: Recent months at Albion Park
Date/Time
EDT
Temp
°C
App
Temp
°C
Dew
Point
Rel
Hum
%
Delta-T
°C
Wind Press
QNH
hPa
Press
MSL
hPa
Rain
since 9 am
mm
Dir
 
Spd
km/h
Gust
km/h
Spd
kts
Gust
kts
30/11:00am 19.2 13.5 8.5 50 5.6 SW 28 39 15 21 1008.8 1008.8 0.0
30/10:36am 19.8 13.6 7.9 46 6.1 SW 30 48 16 26 1009.0 1009.0 0.0
30/10:30am 20.4 15.7 9.3 49 5.9 SW 24 35 13 19 1009.0 1009.0 0.0
30/10:23am 20.2 14.5 8.5 47 6.1 SW 28 46 15 25 1009.0 1009.0 0.0
30/10:00am 20.8 15.4 9.4 48 6.1 SW 28 35 15 19 1008.9 1008.9 0.0
30/09:43am 20.2 14.1 8.2 46 6.2 SW 30 50 16 27 1009.0 1009.0 0.0
30/09:30am 19.9 13.4 8.3 47 6.0 SW 32 46 17 25 1009.0 1009.0 0.0
30/09:26am 20.1 14.5 8.8 48 5.9 WSW 28 46 15 25 1008.9 1008.9 0.0
30/09:00am 19.4 13.6 8.1 48 5.8 SW 28 39 15 21 1009.0 1009.0 0.0
30/08:30am 19.0 13.7 8.6 51 5.4 WSW 26 37 14 20 1009.1 1009.1 0.0
30/08:20am 18.5 12.7 7.9 50 5.4 WSW 28 52 15 28 1009.2 1009.2 0.0
30/08:00am 18.0 13.3 7.7 51 5.2 WSW 22 33 12 18 1009.1 1009.1 0.0
30/07:30am 17.2 13.0 7.5 53 4.9 SW 19 28 10 15 1009.0 1009.0 0.0
30/07:00am 16.7 11.2 7.4 54 4.7 SW 26 44 14 24 1008.8 1008.8 0.0
30/06:30am 16.5 11.0 7.4 55 4.5 SW 26 41 14 22 1008.6 1008.6 0.0
30/06:00am 15.8 11.9 7.3 57 4.2 SW 17 26 9 14 1008.5 1008.5 0.0
30/05:30am 16.6 12.8 7.5 55 4.6 WSW 17 30 9 16 1008.3 1008.3 0.0
30/05:00am 15.1 12.1 7.6 61 3.7 WSW 13 32 7 17 1008.4 1008.4 0.0
30/04:30am 15.6 13.7 7.4 58 4.1 NE 7 9 4 5 1008.5 1008.5 0.0
30/04:00am 15.9 13.7 7.7 58 4.1 WSW 9 17 5 9 1008.9 1008.9 0.0
30/03:30am 16.4 12.9 7.3 55 4.5 WSW 15 30 8 16 1009.2 1009.2 0.0
30/03:13am 17.2 13.7 7.3 52 5.0 WSW 15 41 8 22 1009.1 1009.1 0.0
30/03:00am 16.0 14.1 7.5 57 4.2 W 7 13 4 7 1009.4 1009.4 0.0
30/02:30am 17.4 13.5 7.2 51 5.1 WSW 17 32 9 17 1009.4 1009.4 0.0
30/02:00am 17.2 14.2 7.5 53 4.9 WNW 13 20 7 11 1009.7 1009.7 0.0
30/01:30am 17.0 14.4 7.9 55 4.6 NW 11 17 6 9 1010.0 1010.0 0.0
30/01:00am 17.2 14.9 7.3 52 5.0 WSW 9 15 5 8 1010.3 1010.3 0.0
30/12:30am 17.5 13.6 7.3 51 5.1 SSW 17 35 9 19 1010.8 1010.8 0.0
30/12:00am 17.5 13.7 7.5 52 5.0 SW 17 30 9 16 1011.1 1011.1 0.0
 
Date/Time
EDT
Temp
°C
App
Temp
°C
Dew
Point
Rel
Hum
%
Delta-T
°C
Wind Press
QNH
hPa
Press
MSL
hPa
Rain
since 9 am
mm
Dir
 
Spd
km/h
Gust
km/h
Spd
kts
Gust
kts
29/11:30pm 17.9 13.2 7.9 52 5.1 WSW 22 43 12 23 1011.2 1011.2 0.0
29/11:00pm 17.6 13.7 8.5 55 4.7 SW 19 30 10 16 1011.5 1011.5 0.0
29/10:30pm 17.8 14.0 9.2 57 4.5 SSW 19 32 10 17 1011.8 1011.8 0.0
29/10:00pm 17.8 14.2 9.9 60 4.2 SSW 19 32 10 17 1012.0 1012.0 0.0
29/09:30pm 18.2 15.4 10.1 59 4.3 WSW 15 30 8 16 1011.9 1011.9 0.0
29/09:00pm 18.2 13.8 10.3 60 4.2 SSW 24 44 13 24 1012.0 1012.0 0.0
29/08:30pm 18.5 14.2 10.8 61 4.2 SSW 24 37 13 20 1011.7 1011.7 0.0
29/08:00pm 18.6 14.9 11.4 63 3.9 SSW 22 35 12 19 1011.7 1011.7 0.0
29/07:30pm 19.1 15.7 11.2 60 4.3 SSW 20 35 11 19 1011.5 1011.5 0.0
29/07:00pm 19.7 16.1 11.7 60 4.4 SSW 22 35 12 19 1011.3 1011.3 0.0
29/06:30pm 20.6 15.8 10.4 52 5.5 S 26 35 14 19 1011.0 1011.0 0.0
29/06:00pm 21.8 18.1 11.5 52 5.7 S 22 32 12 17 1010.7 1010.7 0.0
29/05:30pm 21.7 17.9 12.3 55 5.3 S 24 35 13 19 1010.6 1010.6 0.0
29/05:00pm 21.8 18.7 11.5 52 5.7 S 19 30 10 16 1010.7 1010.7 0.0
29/04:30pm 21.8 18.3 12.1 54 5.5 S 22 35 12 19 1010.9 1010.9 0.0
29/04:00pm 22.5 18.0 11.3 49 6.2 SSW 26 43 14 23 1011.3 1011.3 0.0
29/03:30pm 22.5 18.8 11.6 50 6.1 SSW 22 35 12 19 1011.3 1011.3 0.0
29/03:00pm 22.2 17.4 11.6 51 5.9 SSW 28 39 15 21 1011.7 1011.7 0.0
29/02:30pm 21.0 14.9 9.9 49 6.0 SSW 32 46 17 25 1012.1 1012.1 0.0
29/02:00pm 21.9 15.9 10.1 47 6.4 SSW 32 44 17 24 1012.1 1012.1 0.0
29/01:37pm 21.8 16.6 10.3 48 6.3 S 28 48 15 26 1012.1 1012.1 0.0
29/01:30pm 21.9 16.8 10.7 49 6.2 SSW 28 44 15 24 1012.2 1012.2 0.0
29/01:23pm 22.4 17.5 11.2 49 6.2 SSW 28 46 15 25 1012.2 1012.2 0.0
29/01:00pm 21.4 16.3 10.6 50 5.9 SSW 28 43 15 23 1012.4 1012.4 0.0
29/12:36pm 21.4 15.0 8.7 44 6.7 SW 32 50 17 27 1012.7 1012.7 0.0
29/12:30pm 21.3 15.1 9.5 47 6.3 SW 32 46 17 25 1012.6 1012.6 0.0
29/12:00pm 21.2 17.5 10.1 49 6.0 SSW 20 37 11 20 1012.8 1012.8 0.0
29/11:38am 21.3 16.2 10.5 50 5.9 S 28 46 15 25 1012.8 1012.8 0.0
29/11:30am 20.6 14.2 8.6 46 6.3 SSW 32 46 17 25 1013.0 1013.0 0.0
29/11:24am 21.2 16.0 10.1 49 6.0 SSW 28 46 15 25 1013.0 1013.0 0.0
29/11:00am 20.2 16.0 9.7 51 5.6 SSW 22 46 12 25 1013.0 1013.0 0.0
29/10:42am 20.0 14.6 9.6 51 5.5 SSW 28 46 15 25 1013.1 1013.1 0.0
29/10:30am 20.0 13.8 9.9 52 5.4 SSW 33 46 18 25 1013.1 1013.1 0.0
29/10:00am 19.2 12.4 9.1 52 5.3 SSW 35 54 19 29 1013.2 1013.2 0.0
29/09:30am 18.9 12.7 9.4 54 5.0 SSW 32 46 17 25 1013.2 1013.2 0.0
29/09:05am 18.4 12.9 9.2 55 4.8 SSW 28 50 15 27 1013.3 1013.3 0.0
29/09:00am 18.2 12.6 8.7 54 4.9 SSW 28 41 15 22 1013.2 1013.2 2.8
29/08:34am 17.8 12.2 8.9 56 4.6 SSW 28 46 15 25 1013.3 1013.3 2.8
29/08:30am 17.9 12.4 9.3 57 4.5 SSW 28 44 15 24 1013.3 1013.3 2.8
29/08:06am 17.4 11.9 9.3 59 4.2 SSW 28 46 15 25 1013.3 1013.3 2.8
29/08:00am 17.2 10.9 8.9 58 4.3 SSW 32 46 17 25 1013.2 1013.2 2.8
29/07:30am 16.6 10.6 8.8 60 4.0 SSW 30 44 16 24 1013.1 1013.1 2.8
29/07:00am 16.0 10.3 8.2 60 3.9 SSW 28 48 15 26 1012.8 1012.8 2.8
29/06:32am 16.0 10.3 8.2 60 3.9 SSW 28 46 15 25 1012.7 1012.7 2.8
29/06:30am 16.0 10.2 8.0 59 4.0 SSW 28 39 15 21 1012.7 1012.7 2.8
29/06:00am 16.1 9.7 8.6 61 3.8 SSW 32 50 17 27 1012.5 1012.5 2.8
29/05:54am 16.3 9.9 8.5 60 4.0 SSW 32 50 17 27 1012.5 1012.5 2.8
29/05:30am 16.2 10.8 9.6 65 3.4 SSW 28 41 15 22 1012.5 1012.5 2.8
29/05:00am 16.3 11.5 10.4 68 3.1 SW 26 48 14 26 1012.4 1012.4 2.8
29/04:30am 15.9 13.8 11.1 73 2.6 W 13 28 7 15 1012.4 1012.4 2.8
29/04:00am 16.4 14.2 10.9 70 2.9 W 13 22 7 12 1012.5 1012.5 2.8
29/03:30am 16.1 13.3 11.5 74 2.5 SW 17 32 9 17 1012.9 1012.9 2.8
29/03:00am 16.6 12.6 11.7 73 2.7 SSW 24 37 13 20 1013.0 1013.0 2.8
29/02:30am 17.1 12.1 10.9 67 3.3 SSW 28 37 15 20 1013.1 1013.1 2.8
29/02:00am 16.7 11.6 12.0 74 2.6 SSW 30 46 16 25 1013.4 1013.4 2.8
29/01:44am 16.9 12.5 12.8 77 2.3 SSW 28 46 15 25 1013.7 1013.7 2.8
29/01:30am 16.9 12.4 12.6 76 2.4 SSW 28 41 15 22 1013.8 1013.8 2.8
29/01:00am 16.7 12.0 13.2 80 2.0 SSW 30 41 16 22 1014.2 1014.2 2.8
29/12:30am 17.1 12.0 13.0 77 2.3 SSW 32 46 17 25 1014.1 1014.1 2.8
29/12:00am 17.3 12.1 13.4 78 2.2 SSW 33 48 18 26 1014.0 1014.0 2.8
 
Date/Time
EDT
Temp
°C
App
Temp
°C
Dew
Point
Rel
Hum
%
Delta-T
°C
Wind Press
QNH
hPa
Press
MSL
hPa
Rain
since 9 am
mm
Dir
 
Spd
km/h
Gust
km/h
Spd
kts
Gust
kts
28/11:55pm 17.4 13.1 13.3 77 2.3 SSW 28 48 15 26 1014.2 1014.2 2.8
28/11:30pm 17.5 13.1 12.8 74 2.6 SSW 28 43 15 23 1014.2 1014.2 2.8
28/11:00pm 17.0 12.7 13.3 79 2.1 SSW 28 39 15 21 1014.5 1014.5 2.8
28/10:30pm 17.9 14.3 13.2 74 2.6 SSW 24 41 13 22 1014.5 1014.5 2.8
28/10:00pm 17.8 14.0 13.5 76 2.4 S 26 33 14 18 1014.5 1014.5 2.8
28/09:30pm 17.9 14.6 14.0 78 2.2 S 24 33 13 18 1014.6 1014.6 2.8
28/09:00pm 17.3 16.0 13.8 80 2.0 SSW 13 19 7 10 1014.6 1014.6 2.8
28/08:30pm 16.3 15.5 14.1 87 1.2 SSW 11 19 6 10 1014.6 1014.6 2.8
28/08:00pm 16.6 16.1 14.8 89 1.0 S 11 15 6 8 1014.5 1014.5 2.8
28/07:30pm 17.1 14.9 14.4 84 1.5 SSW 19 26 10 14 1014.5 1014.5 2.6
28/07:00pm 17.7 15.6 15.1 85 1.5 S 20 37 11 20 1014.6 1014.6 2.4
28/06:30pm 19.7 16.9 13.2 66 3.7 SSW 20 33 11 18 1014.0 1014.0 2.0
28/06:00pm 19.6 17.1 13.5 68 3.5 SSW 19 26 10 14 1014.0 1014.0 2.0
28/05:30pm 18.5 14.9 12.9 70 3.1 SSW 24 33 13 18 1014.1 1014.1 2.0
28/05:00pm 18.9 15.6 14.0 73 2.8 S 24 41 13 22 1014.2 1014.2 2.0
28/04:51pm 19.9 15.7 13.6 67 3.6 SSE 28 48 15 26 1014.0 1014.0 2.0
28/04:30pm 22.6 19.2 14.7 61 4.7 S 26 35 14 19 1013.7 1013.7 2.0
28/04:00pm 21.2 17.3 13.4 61 4.5 S 26 39 14 21 1013.9 1013.9 2.0
28/03:30pm 21.2 19.0 14.4 65 4.0 S 19 26 10 14 1014.1 1014.1 2.0
28/03:00pm 21.0 19.1 14.2 65 4.0 S 17 30 9 16 1014.2 1014.2 2.0
28/02:30pm 20.8 18.9 14.2 66 3.8 SSW 17 30 9 16 1014.5 1014.5 2.0
28/02:00pm 20.0 18.1 14.1 69 3.4 SSW 17 24 9 13 1014.6 1014.6 2.0
28/01:30pm 20.9 17.8 15.7 72 3.1 S 26 35 14 19 1014.9 1014.9 2.0
28/01:00pm 20.2 19.1 15.4 74 2.8 SSE 15 32 8 17 1014.8 1014.8 2.0
28/12:30pm 19.5 19.0 15.8 79 2.2 S 13 20 7 11 1014.9 1014.9 2.0
28/12:00pm 19.5 18.7 17.1 86 1.5 S 17 24 9 13 1015.0 1015.0 2.0
28/11:30am 17.9 16.4 16.4 91 0.9 SSE 19 26 10 14 1015.1 1015.1 2.0
28/11:00am 17.9 18.2 17.1 95 0.5 S 11 15 6 8 1015.3 1015.3 2.0
28/10:30am 17.4 16.9 16.8 96 0.4 S 15 26 8 14 1015.3 1015.3 2.0
28/10:12am 17.5 18.3 17.2 98 0.2 SSW 9 11 5 6 1015.2 1015.2 2.0
28/10:04am 17.3 18.0 17.0 98 0.2 S 9 13 5 7 1015.2 1015.2 2.0
28/10:00am 17.1 17.7 16.8 98 0.2 S 9 13 5 7 1015.2 1015.2 1.8
28/09:54am 17.3 17.6 17.0 98 0.2 S 11 15 6 8 1015.1 1015.1 1.8
28/09:52am 17.1 17.2 16.6 97 0.3 S 11 15 6 8 1015.1 1015.1 1.8
28/09:48am 17.0 16.7 16.5 97 0.3 S 13 15 7 8 1015.1 1015.1 1.8
28/09:47am 17.1 16.9 16.6 97 0.3 S 13 15 7 8 1015.1 1015.1 1.8
28/09:36am 17.0 16.7 16.5 97 0.3 SSW 13 17 7 9 1014.9 1014.9 1.6
28/09:30am 16.9 17.0 16.4 97 0.3 SSW 11 17 6 9 1014.9 1014.9 1.6
28/09:20am 17.1 16.8 16.5 96 0.4 S 13 22 7 12 1014.8 1014.8 0.4
28/09:01am 17.0 16.7 16.4 96 0.4 S 13 19 7 10 1014.7 1014.7 0.0
28/09:00am 16.9 16.2 16.3 96 0.4 S 15 20 8 11 1014.7 1014.7 26.8
28/08:30am 16.8 16.0 16.0 95 0.5 SSE 15 20 8 11 1014.4 1014.4 26.8
28/08:00am 16.8 17.7 16.2 96 0.4 SSE 6 9 3 5 1014.0 1014.0 26.8
28/07:55am 16.9 17.7 16.3 96 0.4 SSE 7 11 4 6 1014.0 1014.0 26.8
28/07:54am 16.8 17.5 16.2 96 0.4 SSE 7 11 4 6 1014.0 1014.0 26.8
28/07:40am 16.6 16.1 15.8 95 0.5 SSE 13 19 7 10 1013.8 1013.8 26.8
28/07:30am 16.7 17.0 16.1 96 0.4 S 9 17 5 9 1013.5 1013.5 26.2
28/07:08am 16.7 15.5 16.1 96 0.4 S 17 22 9 12 1013.4 1013.4 26.2
28/07:03am 16.7 15.9 16.1 96 0.4 S 15 22 8 12 1013.4 1013.4 26.2
28/07:00am 16.7 15.9 16.1 96 0.4 S 15 19 8 10 1013.4 1013.4 26.2
28/06:43am 17.2 15.6 15.9 92 0.8 S 19 24 10 13 1013.4 1013.4 26.0
28/06:30am 17.6 15.6 15.4 87 1.3 S 20 28 11 15 1013.0 1013.0 26.0
28/06:26am 17.5 15.6 15.3 87 1.3 S 19 28 10 15 1012.9 1012.9 26.0
28/06:00am 17.7 17.0 15.5 87 1.3 S 13 20 7 11 1012.7 1012.7 26.0
28/05:30am 17.5 15.8 15.7 89 1.1 SSW 19 28 10 15 1012.4 1012.4 26.0
28/05:00am 17.4 13.4 16.1 92 0.8 S 32 43 17 23 1012.2 1012.2 26.0
28/04:30am 17.3 14.6 15.5 89 1.1 S 24 35 13 19 1012.2 1012.2 26.0
28/04:00am 17.2 15.8 15.5 90 1.0 S 17 24 9 13 1012.2 1012.2 26.0
28/03:30am 16.7 17.1 16.4 98 0.2 S 9 15 5 8 1012.5 1012.5 26.0
28/03:00am 16.9 18.0 16.6 98 0.2 W 6 7 3 4 1012.6 1012.6 26.0
28/02:30am 17.0 17.6 16.8 99 0.1 W 9 11 5 6 1012.8 1012.8 26.0
28/02:05am 17.0 17.6 16.8 99 0.1 SW 9 13 5 7 1013.2 1013.2 26.0
28/02:00am 17.0 17.6 16.8 99 0.1 SSW 9 11 5 6 1013.3 1013.3 26.0
28/01:58am 17.1 17.7 16.9 99 0.1 SSW 9 13 5 7 1013.3 1013.3 26.0
28/01:30am 17.3 17.3 17.1 99 0.1 S 13 19 7 10 1013.7 1013.7 25.4
28/01:25am 17.3 16.9 17.1 99 0.1 S 15 20 8 11 1013.8 1013.8 25.4
28/01:11am 17.6 19.4 17.4 99 0.1 SE 4 9 2 5 1013.9 1013.9 24.8
28/01:00am 17.5 18.9 17.3 99 0.1 ESE 6 9 3 5 1014.0 1014.0 24.6
28/12:30am 17.2 16.4 17.0 99 0.1 SSW 17 28 9 15 1013.9 1013.9 23.4
28/12:01am 17.4 18.7 17.2 99 0.1 NNW 6 7 3 4 1014.0 1014.0 22.2
28/12:00am 17.4 18.7 17.2 99 0.1 NNW 6 7 3 4 1014.0 1014.0 22.2
 
Date/Time
EDT
Temp
°C
App
Temp
°C
Dew
Point
Rel
Hum
%
Delta-T
°C
Wind Press
QNH
hPa
Press
MSL
hPa
Rain
since 9 am
mm
Dir
 
Spd
km/h
Gust
km/h
Spd
kts
Gust
kts
27/11:30pm 17.4 17.8 17.2 99 0.1 W 11 13 6 7 1014.1 1014.1 22.2
27/11:20pm 17.5 17.9 17.3 99 0.1 W 11 13 6 7 1014.2 1014.2 22.2
27/11:06pm 17.6 18.4 17.3 98 0.2 SSW 9 13 5 7 1014.3 1014.3 22.0
27/11:00pm 17.6 18.8 17.3 98 0.2 SSE 7 11 4 6 1014.2 1014.2 22.0
27/10:46pm 17.4 18.1 17.1 98 0.2 SE 9 20 5 11 1014.2 1014.2 21.8
27/10:30pm 17.4 18.5 17.2 99 0.1 SE 7 15 4 8 1014.4 1014.4 21.6
27/10:00pm 17.5 17.9 17.2 98 0.2 WSW 11 17 6 9 1014.2 1014.2 20.0
27/09:46pm 17.6 18.3 17.1 97 0.3 W 9 11 5 6 1014.0 1014.0 19.4
27/09:43pm 17.7 18.4 17.1 96 0.4 W 9 13 5 7 1014.0 1014.0 19.4
27/09:30pm 17.7 18.0 16.9 95 0.5 WSW 11 15 6 8 1013.8 1013.8 19.0
27/09:00pm 17.9 19.0 16.6 92 0.8 WSW 6 9 3 5 1013.9 1013.9 19.0
27/08:30pm 18.2 18.6 16.2 88 1.2 SSW 9 15 5 8 1013.7 1013.7 19.0
27/08:00pm 18.3 19.2 16.5 89 1.1 W 7 9 4 5 1013.3 1013.3 19.0
27/07:30pm 18.1 17.0 16.4 90 1.0 SSW 17 22 9 12 1013.3 1013.3 19.0
27/07:00pm 18.4 17.4 16.6 89 1.1 S 17 22 9 12 1013.1 1013.1 19.0
27/06:30pm 18.2 16.8 16.9 92 0.8 S 20 30 11 16 1012.7 1012.7 19.0
27/06:00pm 18.2 16.0 17.0 93 0.7 S 24 32 13 17 1012.6 1012.6 19.0
27/05:30pm 18.9 17.5 17.0 89 1.1 SSE 20 28 11 15 1012.9 1012.9 19.0
27/05:00pm 19.7 19.2 17.7 88 1.2 SSE 17 28 9 15 1013.1 1013.1 19.0
27/04:52pm 19.7 18.8 17.8 89 1.2 S 19 26 10 14 1012.9 1012.9 19.0
27/04:42pm 19.8 20.6 18.1 90 1.1 SSE 11 19 6 10 1013.0 1013.0 19.0
27/04:30pm 19.7 20.5 18.2 91 0.9 SSE 11 19 6 10 1012.9 1012.9 19.0
27/04:00pm 19.0 19.6 17.7 92 0.8 SSE 11 15 6 8 1013.4 1013.4 19.0
27/03:30pm 19.0 19.6 18.5 97 0.3 SE 13 19 7 10 1013.2 1013.2 19.0
27/03:17pm 18.6 19.1 18.4 99 0.1 SE 13 19 7 10 1013.4 1013.4 19.0
27/03:00pm 18.3 19.0 18.0 98 0.2 SE 11 20 6 11 1013.8 1013.8 18.8
27/02:56pm 18.2 18.9 17.9 98 0.2 SE 11 20 6 11 1013.8 1013.8 18.8
27/02:30pm 18.1 19.0 17.6 97 0.3 SSE 9 13 5 7 1014.1 1014.1 16.6
27/02:20pm 18.5 20.0 18.0 97 0.3 SSE 7 11 4 6 1014.1 1014.1 15.0
27/02:00pm 18.4 18.7 17.9 97 0.3 S 13 17 7 9 1014.2 1014.2 14.4
27/01:51pm 18.6 19.5 18.3 98 0.2 SSE 11 17 6 9 1014.0 1014.0 14.2
27/01:30pm 18.6 19.5 18.4 99 0.1 SSE 11 15 6 8 1014.2 1014.2 14.0
27/01:00pm 18.1 18.4 17.8 98 0.2 SSE 13 19 7 10 1014.6 1014.6 12.6
27/12:55pm 18.3 19.0 18.0 98 0.2 SE 11 17 6 9 1014.7 1014.7 12.2
27/12:34pm 18.4 19.2 18.2 99 0.1 SSE 11 17 6 9 1014.7 1014.7 10.8
27/12:30pm 18.5 19.4 18.3 99 0.1 S 11 17 6 9 1014.8 1014.8 10.6
27/12:12pm 18.3 19.1 18.1 99 0.1 S 11 17 6 9 1014.8 1014.8 10.0
27/12:00pm 18.3 18.7 18.1 99 0.1 S 13 17 7 9 1014.8 1014.8 9.8
27/11:30am 17.8 17.2 17.6 99 0.1 S 17 26 9 14 1014.9 1014.9 7.0

Other Formats:

Comma delimited format used in spreadsheet applications
http://www.bom.gov.au/fwo/IDN60801/IDN60801.95748.axf

JavaScript Object Notation format (JSON) in row-major order
http://www.bom.gov.au/fwo/IDN60801/IDN60801.95748.json